sensor_id;sensor_type;location;lat;lon;timestamp;P1;durP1;ratioP1;P2;durP2;ratioP2
35993;SDS011;22066;54.274;18.578;2022-12-05T00:03:37;26.37;;;11.10;;
35993;SDS011;22066;54.274;18.578;2022-12-05T00:06:03;27.87;;;10.73;;
35993;SDS011;22066;54.274;18.578;2022-12-05T00:08:29;20.83;;;8.90;;
35993;SDS011;22066;54.274;18.578;2022-12-05T00:10:55;26.27;;;9.33;;
35993;SDS011;22066;54.274;18.578;2022-12-05T00:13:22;25.33;;;9.00;;
35993;SDS011;22066;54.274;18.578;2022-12-05T00:15:48;26.23;;;9.97;;
35993;SDS011;22066;54.274;18.578;2022-12-05T00:18:14;26.40;;;9.73;;
35993;SDS011;22066;54.274;18.578;2022-12-05T00:20:43;25.30;;;9.10;;
35993;SDS011;22066;54.274;18.578;2022-12-05T00:23:10;23.00;;;9.87;;
35993;SDS011;22066;54.274;18.578;2022-12-05T00:25:36;25.20;;;11.27;;
35993;SDS011;22066;54.274;18.578;2022-12-05T00:28:02;22.90;;;8.73;;
35993;SDS011;22066;54.274;18.578;2022-12-05T00:30:28;20.63;;;8.40;;
35993;SDS011;22066;54.274;18.578;2022-12-05T00:32:54;24.33;;;8.47;;
35993;SDS011;22066;54.274;18.578;2022-12-05T00:35:20;19.17;;;6.87;;
35993;SDS011;22066;54.274;18.578;2022-12-05T00:37:46;20.70;;;8.67;;
35993;SDS011;22066;54.274;18.578;2022-12-05T00:40:12;24.60;;;9.07;;
35993;SDS011;22066;54.274;18.578;2022-12-05T00:42:38;23.50;;;9.00;;
35993;SDS011;22066;54.274;18.578;2022-12-05T00:45:04;20.90;;;8.07;;
35993;SDS011;22066;54.274;18.578;2022-12-05T00:47:33;13.07;;;5.90;;
35993;SDS011;22066;54.274;18.578;2022-12-05T00:50:00;28.80;;;8.53;;
35993;SDS011;22066;54.274;18.578;2022-12-05T00:52:26;21.90;;;8.77;;
35993;SDS011;22066;54.274;18.578;2022-12-05T00:54:52;22.70;;;8.50;;
35993;SDS011;22066;54.274;18.578;2022-12-05T00:57:18;22.67;;;8.07;;
35993;SDS011;22066;54.274;18.578;2022-12-05T00:59:44;22.23;;;8.23;;
35993;SDS011;22066;54.274;18.578;2022-12-05T01:02:10;19.63;;;8.33;;
35993;SDS011;22066;54.274;18.578;2022-12-05T01:04:36;16.93;;;6.50;;
35993;SDS011;22066;54.274;18.578;2022-12-05T01:07:02;17.80;;;7.50;;
35993;SDS011;22066;54.274;18.578;2022-12-05T01:09:28;25.10;;;8.63;;
35993;SDS011;22066;54.274;18.578;2022-12-05T01:11:54;21.57;;;8.77;;
35993;SDS011;22066;54.274;18.578;2022-12-05T01:14:21;31.47;;;9.00;;
35993;SDS011;22066;54.274;18.578;2022-12-05T01:16:48;17.50;;;7.20;;
35993;SDS011;22066;54.274;18.578;2022-12-05T01:19:16;24.57;;;8.17;;
35993;SDS011;22066;54.274;18.578;2022-12-05T01:21:42;21.45;;;8.68;;
35993;SDS011;22066;54.274;18.578;2022-12-05T01:24:09;20.30;;;8.53;;
35993;SDS011;22066;54.274;18.578;2022-12-05T01:26:35;22.07;;;8.53;;
35993;SDS011;22066;54.274;18.578;2022-12-05T01:29:02;25.87;;;10.13;;
35993;SDS011;22066;54.274;18.578;2022-12-05T01:31:31;23.30;;;6.67;;
35993;SDS011;22066;54.274;18.578;2022-12-05T01:33:58;18.03;;;7.53;;
35993;SDS011;22066;54.274;18.578;2022-12-05T01:36:25;23.13;;;8.20;;
35993;SDS011;22066;54.274;18.578;2022-12-05T01:38:51;24.07;;;7.43;;
35993;SDS011;22066;54.274;18.578;2022-12-05T01:41:19;26.43;;;9.47;;
35993;SDS011;22066;54.274;18.578;2022-12-05T01:43:56;15.85;;;6.47;;
35993;SDS011;22066;54.274;18.578;2022-12-05T01:46:23;20.93;;;8.30;;
35993;SDS011;22066;54.274;18.578;2022-12-05T01:48:50;18.93;;;7.70;;
35993;SDS011;22066;54.274;18.578;2022-12-05T01:51:16;22.03;;;8.73;;
35993;SDS011;22066;54.274;18.578;2022-12-05T01:53:43;20.00;;;7.37;;
35993;SDS011;22066;54.274;18.578;2022-12-05T01:56:09;18.23;;;6.80;;
35993;SDS011;22066;54.274;18.578;2022-12-05T01:58:35;23.00;;;8.17;;
35993;SDS011;22066;54.274;18.578;2022-12-05T02:01:02;20.93;;;7.77;;
35993;SDS011;22066;54.274;18.578;2022-12-05T02:03:28;13.87;;;4.93;;
35993;SDS011;22066;54.274;18.578;2022-12-05T02:05:55;19.83;;;8.13;;
35993;SDS011;22066;54.274;18.578;2022-12-05T02:08:22;11.80;;;4.87;;
35993;SDS011;22066;54.274;18.578;2022-12-05T02:10:49;17.97;;;7.50;;
35993;SDS011;22066;54.274;18.578;2022-12-05T02:13:31;18.00;;;8.10;;
35993;SDS011;22066;54.274;18.578;2022-12-05T02:18:29;16.97;;;6.90;;
35993;SDS011;22066;54.274;18.578;2022-12-05T02:21:05;16.50;;;7.33;;
35993;SDS011;22066;54.274;18.578;2022-12-05T02:31:26;19.47;;;7.37;;
35993;SDS011;22066;54.274;18.578;2022-12-05T02:36:45;22.53;;;8.60;;
35993;SDS011;22066;54.274;18.578;2022-12-05T02:39:20;22.00;;;10.00;;
35993;SDS011;22066;54.274;18.578;2022-12-05T02:44:43;14.90;;;6.63;;
35993;SDS011;22066;54.274;18.578;2022-12-05T02:47:10;11.52;;;6.00;;
35993;SDS011;22066;54.274;18.578;2022-12-05T02:49:37;20.50;;;8.67;;
35993;SDS011;22066;54.274;18.578;2022-12-05T02:52:06;18.52;;;7.82;;
35993;SDS011;22066;54.274;18.578;2022-12-05T02:54:35;25.90;;;8.70;;
35993;SDS011;22066;54.274;18.578;2022-12-05T02:57:02;21.40;;;8.10;;
35993;SDS011;22066;54.274;18.578;2022-12-05T02:59:32;22.70;;;8.80;;
35993;SDS011;22066;54.274;18.578;2022-12-05T03:01:58;19.07;;;7.93;;
35993;SDS011;22066;54.274;18.578;2022-12-05T03:04:24;24.97;;;7.83;;
35993;SDS011;22066;54.274;18.578;2022-12-05T03:09:24;19.60;;;7.70;;
35993;SDS011;22066;54.274;18.578;2022-12-05T03:11:55;20.47;;;7.37;;
35993;SDS011;22066;54.274;18.578;2022-12-05T03:14:25;25.60;;;9.57;;
35993;SDS011;22066;54.274;18.578;2022-12-05T03:19:20;19.90;;;9.50;;
35993;SDS011;22066;54.274;18.578;2022-12-05T03:21:52;21.07;;;8.30;;
35993;SDS011;22066;54.274;18.578;2022-12-05T03:24:20;17.90;;;7.93;;
35993;SDS011;22066;54.274;18.578;2022-12-05T03:29:35;17.40;;;7.73;;
35993;SDS011;22066;54.274;18.578;2022-12-05T03:34:42;29.73;;;11.67;;
35993;SDS011;22066;54.274;18.578;2022-12-05T03:37:12;28.93;;;11.23;;
35993;SDS011;22066;54.274;18.578;2022-12-05T03:39:40;24.97;;;10.17;;
35993;SDS011;22066;54.274;18.578;2022-12-05T03:42:11;23.27;;;10.00;;
35993;SDS011;22066;54.274;18.578;2022-12-05T03:47:24;21.00;;;8.73;;
35993;SDS011;22066;54.274;18.578;2022-12-05T03:49:54;23.07;;;8.60;;
35993;SDS011;22066;54.274;18.578;2022-12-05T03:52:24;24.10;;;9.30;;
35993;SDS011;22066;54.274;18.578;2022-12-05T03:54:52;22.67;;;8.90;;
35993;SDS011;22066;54.274;18.578;2022-12-05T03:57:26;24.50;;;8.70;;
35993;SDS011;22066;54.274;18.578;2022-12-05T04:00:15;21.93;;;10.30;;
35993;SDS011;22066;54.274;18.578;2022-12-05T04:02:51;23.47;;;9.07;;
35993;SDS011;22066;54.274;18.578;2022-12-05T04:07:45;28.23;;;11.10;;
35993;SDS011;22066;54.274;18.578;2022-12-05T04:10:13;22.53;;;9.33;;
35993;SDS011;22066;54.274;18.578;2022-12-05T04:12:40;23.63;;;9.10;;
35993;SDS011;22066;54.274;18.578;2022-12-05T04:15:29;26.20;;;10.38;;
35993;SDS011;22066;54.274;18.578;2022-12-05T04:18:15;23.30;;;8.90;;
35993;SDS011;22066;54.274;18.578;2022-12-05T04:20:43;32.17;;;11.70;;
35993;SDS011;22066;54.274;18.578;2022-12-05T04:23:29;25.27;;;10.07;;
35993;SDS011;22066;54.274;18.578;2022-12-05T04:26:12;27.00;;;9.93;;
35993;SDS011;22066;54.274;18.578;2022-12-05T04:28:43;20.63;;;8.50;;
35993;SDS011;22066;54.274;18.578;2022-12-05T04:31:18;27.83;;;9.83;;
35993;SDS011;22066;54.274;18.578;2022-12-05T04:34:01;22.67;;;9.20;;
35993;SDS011;22066;54.274;18.578;2022-12-05T04:36:42;21.27;;;7.67;;
35993;SDS011;22066;54.274;18.578;2022-12-05T04:39:10;21.37;;;8.47;;
35993;SDS011;22066;54.274;18.578;2022-12-05T04:41:39;18.70;;;8.33;;
35993;SDS011;22066;54.274;18.578;2022-12-05T04:44:06;15.50;;;7.70;;
35993;SDS011;22066;54.274;18.578;2022-12-05T04:46:34;19.63;;;7.47;;
35993;SDS011;22066;54.274;18.578;2022-12-05T04:49:00;18.13;;;7.47;;
35993;SDS011;22066;54.274;18.578;2022-12-05T04:51:28;18.05;;;6.05;;
35993;SDS011;22066;54.274;18.578;2022-12-05T04:53:57;23.37;;;8.13;;
35993;SDS011;22066;54.274;18.578;2022-12-05T04:56:26;22.73;;;9.30;;
35993;SDS011;22066;54.274;18.578;2022-12-05T04:58:53;21.80;;;9.65;;
35993;SDS011;22066;54.274;18.578;2022-12-05T05:01:30;17.50;;;7.03;;
35993;SDS011;22066;54.274;18.578;2022-12-05T05:06:24;16.93;;;6.47;;
35993;SDS011;22066;54.274;18.578;2022-12-05T05:08:52;22.70;;;7.13;;
35993;SDS011;22066;54.274;18.578;2022-12-05T05:11:20;21.30;;;8.93;;
35993;SDS011;22066;54.274;18.578;2022-12-05T05:13:47;19.20;;;6.65;;
35993;SDS011;22066;54.274;18.578;2022-12-05T05:16:14;15.43;;;6.40;;
35993;SDS011;22066;54.274;18.578;2022-12-05T05:18:42;13.97;;;6.10;;
35993;SDS011;22066;54.274;18.578;2022-12-05T05:21:18;20.00;;;8.93;;
35993;SDS011;22066;54.274;18.578;2022-12-05T05:23:44;31.00;;;9.27;;
35993;SDS011;22066;54.274;18.578;2022-12-05T05:26:11;23.43;;;9.03;;
35993;SDS011;22066;54.274;18.578;2022-12-05T05:28:37;25.77;;;10.30;;
35993;SDS011;22066;54.274;18.578;2022-12-05T05:31:03;17.07;;;7.60;;
35993;SDS011;22066;54.274;18.578;2022-12-05T05:33:29;19.97;;;9.07;;
35993;SDS011;22066;54.274;18.578;2022-12-05T05:35:55;20.23;;;9.40;;
35993;SDS011;22066;54.274;18.578;2022-12-05T05:38:21;19.67;;;7.80;;
35993;SDS011;22066;54.274;18.578;2022-12-05T05:40:47;23.03;;;9.10;;
35993;SDS011;22066;54.274;18.578;2022-12-05T05:43:13;19.93;;;8.63;;
35993;SDS011;22066;54.274;18.578;2022-12-05T05:45:39;18.93;;;7.50;;
35993;SDS011;22066;54.274;18.578;2022-12-05T05:48:05;19.00;;;7.23;;
35993;SDS011;22066;54.274;18.578;2022-12-05T05:50:31;19.07;;;7.83;;
35993;SDS011;22066;54.274;18.578;2022-12-05T05:52:57;16.37;;;7.10;;
35993;SDS011;22066;54.274;18.578;2022-12-05T05:55:23;18.17;;;7.47;;
35993;SDS011;22066;54.274;18.578;2022-12-05T05:57:49;18.20;;;8.10;;
35993;SDS011;22066;54.274;18.578;2022-12-05T06:00:15;23.20;;;9.77;;
35993;SDS011;22066;54.274;18.578;2022-12-05T06:02:41;20.23;;;7.73;;
35993;SDS011;22066;54.274;18.578;2022-12-05T06:05:07;22.83;;;9.37;;
35993;SDS011;22066;54.274;18.578;2022-12-05T06:07:34;21.77;;;8.97;;
35993;SDS011;22066;54.274;18.578;2022-12-05T06:10:00;35.77;;;12.20;;
35993;SDS011;22066;54.274;18.578;2022-12-05T06:12:26;33.00;;;13.07;;
35993;SDS011;22066;54.274;18.578;2022-12-05T06:14:52;31.83;;;10.67;;
35993;SDS011;22066;54.274;18.578;2022-12-05T06:17:18;32.13;;;12.53;;
35993;SDS011;22066;54.274;18.578;2022-12-05T06:19:44;28.20;;;11.83;;
35993;SDS011;22066;54.274;18.578;2022-12-05T06:22:10;22.57;;;10.13;;
35993;SDS011;22066;54.274;18.578;2022-12-05T06:24:36;27.43;;;10.43;;
35993;SDS011;22066;54.274;18.578;2022-12-05T06:27:02;19.53;;;8.77;;
35993;SDS011;22066;54.274;18.578;2022-12-05T06:29:28;20.67;;;9.07;;
35993;SDS011;22066;54.274;18.578;2022-12-05T06:31:54;22.10;;;9.23;;
35993;SDS011;22066;54.274;18.578;2022-12-05T06:34:20;19.57;;;7.70;;
35993;SDS011;22066;54.274;18.578;2022-12-05T06:36:46;25.60;;;10.10;;
35993;SDS011;22066;54.274;18.578;2022-12-05T06:39:12;20.23;;;7.57;;
35993;SDS011;22066;54.274;18.578;2022-12-05T06:41:38;23.93;;;9.93;;
35993;SDS011;22066;54.274;18.578;2022-12-05T06:44:04;22.73;;;8.33;;
35993;SDS011;22066;54.274;18.578;2022-12-05T06:46:30;25.13;;;8.47;;
35993;SDS011;22066;54.274;18.578;2022-12-05T06:48:57;21.20;;;8.17;;
35993;SDS011;22066;54.274;18.578;2022-12-05T06:51:23;21.23;;;8.07;;
35993;SDS011;22066;54.274;18.578;2022-12-05T06:53:49;19.50;;;7.90;;
35993;SDS011;22066;54.274;18.578;2022-12-05T06:56:16;21.00;;;9.43;;
35993;SDS011;22066;54.274;18.578;2022-12-05T06:58:44;23.52;;;8.55;;
35993;SDS011;22066;54.274;18.578;2022-12-05T07:01:14;19.97;;;7.43;;
35993;SDS011;22066;54.274;18.578;2022-12-05T07:04:00;22.20;;;8.97;;
35993;SDS011;22066;54.274;18.578;2022-12-05T07:06:26;28.60;;;9.83;;
35993;SDS011;22066;54.274;18.578;2022-12-05T07:08:52;17.90;;;8.07;;
35993;SDS011;22066;54.274;18.578;2022-12-05T07:11:18;21.13;;;8.13;;
35993;SDS011;22066;54.274;18.578;2022-12-05T07:13:44;24.83;;;10.03;;
35993;SDS011;22066;54.274;18.578;2022-12-05T07:16:10;24.77;;;8.17;;
35993;SDS011;22066;54.274;18.578;2022-12-05T07:18:36;22.47;;;9.00;;
35993;SDS011;22066;54.274;18.578;2022-12-05T07:21:04;20.70;;;9.50;;
35993;SDS011;22066;54.274;18.578;2022-12-05T07:23:30;24.17;;;8.77;;
35993;SDS011;22066;54.274;18.578;2022-12-05T07:25:56;26.93;;;9.80;;
35993;SDS011;22066;54.274;18.578;2022-12-05T07:28:22;24.47;;;8.97;;
35993;SDS011;22066;54.274;18.578;2022-12-05T07:30:57;22.63;;;8.00;;
35993;SDS011;22066;54.274;18.578;2022-12-05T07:33:24;15.87;;;6.53;;
35993;SDS011;22066;54.274;18.578;2022-12-05T07:35:50;24.17;;;9.17;;
35993;SDS011;22066;54.274;18.578;2022-12-05T07:38:16;22.33;;;9.33;;
35993;SDS011;22066;54.274;18.578;2022-12-05T07:40:42;22.37;;;9.23;;
35993;SDS011;22066;54.274;18.578;2022-12-05T07:43:07;23.97;;;9.23;;
35993;SDS011;22066;54.274;18.578;2022-12-05T07:45:34;20.67;;;9.13;;
35993;SDS011;22066;54.274;18.578;2022-12-05T07:48:00;30.03;;;11.30;;
35993;SDS011;22066;54.274;18.578;2022-12-05T07:50:26;26.37;;;10.70;;
35993;SDS011;22066;54.274;18.578;2022-12-05T07:52:52;22.10;;;9.70;;
35993;SDS011;22066;54.274;18.578;2022-12-05T07:55:18;21.20;;;9.10;;
35993;SDS011;22066;54.274;18.578;2022-12-05T07:57:44;21.40;;;9.07;;
35993;SDS011;22066;54.274;18.578;2022-12-05T08:00:10;21.50;;;8.43;;
35993;SDS011;22066;54.274;18.578;2022-12-05T08:02:37;28.13;;;9.67;;
35993;SDS011;22066;54.274;18.578;2022-12-05T08:05:03;22.27;;;9.10;;
35993;SDS011;22066;54.274;18.578;2022-12-05T08:07:29;23.83;;;10.53;;
35993;SDS011;22066;54.274;18.578;2022-12-05T08:09:55;28.50;;;10.60;;
35993;SDS011;22066;54.274;18.578;2022-12-05T08:12:21;25.93;;;10.47;;
35993;SDS011;22066;54.274;18.578;2022-12-05T08:14:47;24.83;;;10.67;;
35993;SDS011;22066;54.274;18.578;2022-12-05T08:17:13;20.23;;;8.33;;
35993;SDS011;22066;54.274;18.578;2022-12-05T08:19:39;23.60;;;9.13;;
35993;SDS011;22066;54.274;18.578;2022-12-05T08:22:05;24.53;;;9.47;;
35993;SDS011;22066;54.274;18.578;2022-12-05T08:24:31;28.33;;;11.83;;
35993;SDS011;22066;54.274;18.578;2022-12-05T08:26:57;28.33;;;10.30;;
35993;SDS011;22066;54.274;18.578;2022-12-05T08:29:23;27.30;;;8.87;;
35993;SDS011;22066;54.274;18.578;2022-12-05T08:31:49;29.93;;;12.30;;
35993;SDS011;22066;54.274;18.578;2022-12-05T08:34:17;30.63;;;12.00;;
35993;SDS011;22066;54.274;18.578;2022-12-05T08:36:44;21.30;;;8.88;;
35993;SDS011;22066;54.274;18.578;2022-12-05T08:39:11;31.03;;;12.63;;
35993;SDS011;22066;54.274;18.578;2022-12-05T08:41:39;23.07;;;8.87;;
35993;SDS011;22066;54.274;18.578;2022-12-05T08:44:05;23.10;;;10.70;;
35993;SDS011;22066;54.274;18.578;2022-12-05T08:46:33;27.87;;;11.30;;
35993;SDS011;22066;54.274;18.578;2022-12-05T08:48:59;31.77;;;13.30;;
35993;SDS011;22066;54.274;18.578;2022-12-05T08:51:25;30.80;;;11.17;;
35993;SDS011;22066;54.274;18.578;2022-12-05T08:53:51;32.27;;;10.07;;
35993;SDS011;22066;54.274;18.578;2022-12-05T08:56:19;39.40;;;14.60;;
35993;SDS011;22066;54.274;18.578;2022-12-05T08:58:45;32.27;;;11.13;;
35993;SDS011;22066;54.274;18.578;2022-12-05T09:01:14;17.70;;;9.00;;
35993;SDS011;22066;54.274;18.578;2022-12-05T09:03:41;31.17;;;11.27;;
35993;SDS011;22066;54.274;18.578;2022-12-05T09:06:08;26.67;;;11.97;;
35993;SDS011;22066;54.274;18.578;2022-12-05T09:08:35;34.65;;;11.73;;
35993;SDS011;22066;54.274;18.578;2022-12-05T09:11:05;29.43;;;11.77;;
35993;SDS011;22066;54.274;18.578;2022-12-05T09:13:32;26.83;;;9.43;;
35993;SDS011;22066;54.274;18.578;2022-12-05T09:15:58;44.63;;;17.00;;
35993;SDS011;22066;54.274;18.578;2022-12-05T09:18:24;35.97;;;13.37;;
35993;SDS011;22066;54.274;18.578;2022-12-05T09:20:50;29.10;;;10.10;;
35993;SDS011;22066;54.274;18.578;2022-12-05T09:23:16;30.60;;;11.87;;
35993;SDS011;22066;54.274;18.578;2022-12-05T09:25:42;28.57;;;10.97;;
35993;SDS011;22066;54.274;18.578;2022-12-05T09:28:08;29.23;;;11.17;;
35993;SDS011;22066;54.274;18.578;2022-12-05T09:30:34;30.23;;;9.77;;
35993;SDS011;22066;54.274;18.578;2022-12-05T09:33:00;26.67;;;10.80;;
35993;SDS011;22066;54.274;18.578;2022-12-05T09:35:26;26.90;;;10.20;;
35993;SDS011;22066;54.274;18.578;2022-12-05T09:37:52;29.37;;;11.87;;
35993;SDS011;22066;54.274;18.578;2022-12-05T09:40:21;31.75;;;11.55;;
35993;SDS011;22066;54.274;18.578;2022-12-05T09:42:52;28.93;;;12.50;;
35993;SDS011;22066;54.274;18.578;2022-12-05T09:45:21;32.53;;;13.30;;
35993;SDS011;22066;54.274;18.578;2022-12-05T09:52:42;27.87;;;10.23;;
35993;SDS011;22066;54.274;18.578;2022-12-05T09:55:13;25.85;;;9.25;;
35993;SDS011;22066;54.274;18.578;2022-12-05T09:57:41;25.17;;;9.53;;
35993;SDS011;22066;54.274;18.578;2022-12-05T10:00:09;20.27;;;7.47;;
35993;SDS011;22066;54.274;18.578;2022-12-05T10:05:16;22.10;;;10.17;;
35993;SDS011;22066;54.274;18.578;2022-12-05T10:07:50;32.40;;;13.10;;
35993;SDS011;22066;54.274;18.578;2022-12-05T10:10:31;28.30;;;11.87;;
35993;SDS011;22066;54.274;18.578;2022-12-05T10:15:45;30.40;;;12.50;;
35993;SDS011;22066;54.274;18.578;2022-12-05T10:25:55;19.07;;;7.37;;
35993;SDS011;22066;54.274;18.578;2022-12-05T10:28:27;25.80;;;11.17;;
35993;SDS011;22066;54.274;18.578;2022-12-05T10:30:55;28.53;;;7.83;;
35993;SDS011;22066;54.274;18.578;2022-12-05T10:33:22;27.48;;;10.57;;
35993;SDS011;22066;54.274;18.578;2022-12-05T10:35:49;24.57;;;9.63;;
35993;SDS011;22066;54.274;18.578;2022-12-05T10:38:25;24.87;;;9.50;;
35993;SDS011;22066;54.274;18.578;2022-12-05T10:40:53;23.97;;;9.47;;
35993;SDS011;22066;54.274;18.578;2022-12-05T10:43:26;23.80;;;8.33;;
35993;SDS011;22066;54.274;18.578;2022-12-05T10:45:52;31.63;;;12.10;;
35993;SDS011;22066;54.274;18.578;2022-12-05T10:48:19;31.50;;;10.53;;
35993;SDS011;22066;54.274;18.578;2022-12-05T10:50:46;29.37;;;10.77;;
35993;SDS011;22066;54.274;18.578;2022-12-05T10:53:23;19.13;;;8.17;;
35993;SDS011;22066;54.274;18.578;2022-12-05T10:55:49;30.37;;;11.67;;
35993;SDS011;22066;54.274;18.578;2022-12-05T10:58:17;26.00;;;10.13;;
35993;SDS011;22066;54.274;18.578;2022-12-05T11:00:53;28.77;;;10.73;;
35993;SDS011;22066;54.274;18.578;2022-12-05T11:05:49;29.70;;;10.43;;
35993;SDS011;22066;54.274;18.578;2022-12-05T11:08:24;30.13;;;13.40;;
35993;SDS011;22066;54.274;18.578;2022-12-05T11:10:59;25.87;;;9.63;;
35993;SDS011;22066;54.274;18.578;2022-12-05T11:13:25;28.03;;;10.70;;
35993;SDS011;22066;54.274;18.578;2022-12-05T11:15:51;36.17;;;13.57;;
35993;SDS011;22066;54.274;18.578;2022-12-05T11:18:21;31.67;;;10.87;;
35993;SDS011;22066;54.274;18.578;2022-12-05T11:20:51;21.13;;;8.83;;
35993;SDS011;22066;54.274;18.578;2022-12-05T11:25:48;35.80;;;12.20;;
35993;SDS011;22066;54.274;18.578;2022-12-05T11:33:22;30.47;;;10.23;;
35993;SDS011;22066;54.274;18.578;2022-12-05T11:35:49;35.73;;;12.13;;
35993;SDS011;22066;54.274;18.578;2022-12-05T11:38:16;33.63;;;13.02;;
35993;SDS011;22066;54.274;18.578;2022-12-05T11:58:52;24.33;;;10.90;;
35993;SDS011;22066;54.274;18.578;2022-12-05T12:01:29;34.33;;;14.53;;
35993;SDS011;22066;54.274;18.578;2022-12-05T12:04:09;33.10;;;13.30;;
35993;SDS011;22066;54.274;18.578;2022-12-05T12:06:48;29.03;;;13.13;;
35993;SDS011;22066;54.274;18.578;2022-12-05T12:12:07;29.73;;;10.80;;
35993;SDS011;22066;54.274;18.578;2022-12-05T12:30:23;29.27;;;10.77;;
35993;SDS011;22066;54.274;18.578;2022-12-05T12:32:57;37.43;;;12.77;;
35993;SDS011;22066;54.274;18.578;2022-12-05T12:38:04;34.47;;;14.47;;
35993;SDS011;22066;54.274;18.578;2022-12-05T12:43:08;39.53;;;15.47;;
35993;SDS011;22066;54.274;18.578;2022-12-05T12:45:46;37.55;;;14.40;;
35993;SDS011;22066;54.274;18.578;2022-12-05T12:50:54;29.87;;;14.93;;
35993;SDS011;22066;54.274;18.578;2022-12-05T12:56:12;35.17;;;12.48;;
35993;SDS011;22066;54.274;18.578;2022-12-05T13:01:29;27.65;;;11.50;;
35993;SDS011;22066;54.274;18.578;2022-12-05T13:04:04;33.53;;;15.13;;
35993;SDS011;22066;54.274;18.578;2022-12-05T13:11:38;38.03;;;13.70;;
35993;SDS011;22066;54.274;18.578;2022-12-05T13:14:08;23.50;;;10.50;;
35993;SDS011;22066;54.274;18.578;2022-12-05T13:16:37;31.47;;;12.43;;
35993;SDS011;22066;54.274;18.578;2022-12-05T13:19:04;33.90;;;13.53;;
35993;SDS011;22066;54.274;18.578;2022-12-05T13:21:31;37.87;;;12.53;;
35993;SDS011;22066;54.274;18.578;2022-12-05T13:23:57;27.83;;;12.33;;
35993;SDS011;22066;54.274;18.578;2022-12-05T13:26:27;39.03;;;12.67;;
35993;SDS011;22066;54.274;18.578;2022-12-05T13:28:54;31.03;;;11.97;;
35993;SDS011;22066;54.274;18.578;2022-12-05T13:33:49;89.60;;;48.10;;
35993;SDS011;22066;54.274;18.578;2022-12-05T13:36:16;40.20;;;17.90;;
35993;SDS011;22066;54.274;18.578;2022-12-05T13:41:58;40.60;;;15.33;;
35993;SDS011;22066;54.274;18.578;2022-12-05T13:44:48;40.73;;;17.10;;
35993;SDS011;22066;54.274;18.578;2022-12-05T13:47:35;34.67;;;14.57;;
35993;SDS011;22066;54.274;18.578;2022-12-05T13:52:31;35.23;;;13.53;;
35993;SDS011;22066;54.274;18.578;2022-12-05T13:57:46;34.97;;;14.20;;
35993;SDS011;22066;54.274;18.578;2022-12-05T14:15:26;38.30;;;15.07;;
35993;SDS011;22066;54.274;18.578;2022-12-05T14:17:59;36.53;;;15.40;;
35993;SDS011;22066;54.274;18.578;2022-12-05T14:20:47;32.00;;;14.13;;
35993;SDS011;22066;54.274;18.578;2022-12-05T14:31:14;31.17;;;13.17;;
35993;SDS011;22066;54.274;18.578;2022-12-05T14:33:43;34.57;;;13.23;;
35993;SDS011;22066;54.274;18.578;2022-12-05T14:36:16;39.90;;;17.03;;
35993;SDS011;22066;54.274;18.578;2022-12-05T14:38:43;36.80;;;14.13;;
35993;SDS011;22066;54.274;18.578;2022-12-05T14:41:12;42.17;;;16.13;;
35993;SDS011;22066;54.274;18.578;2022-12-05T14:43:39;40.07;;;14.60;;
35993;SDS011;22066;54.274;18.578;2022-12-05T14:46:06;45.67;;;16.87;;
35993;SDS011;22066;54.274;18.578;2022-12-05T14:48:41;45.30;;;18.80;;
35993;SDS011;22066;54.274;18.578;2022-12-05T14:54:10;37.43;;;17.50;;
35993;SDS011;22066;54.274;18.578;2022-12-05T14:56:41;38.37;;;14.23;;
35993;SDS011;22066;54.274;18.578;2022-12-05T14:59:16;33.77;;;12.77;;
35993;SDS011;22066;54.274;18.578;2022-12-05T15:01:53;43.13;;;14.27;;
35993;SDS011;22066;54.274;18.578;2022-12-05T15:04:22;39.90;;;17.33;;
35993;SDS011;22066;54.274;18.578;2022-12-05T15:06:58;39.93;;;17.63;;
35993;SDS011;22066;54.274;18.578;2022-12-05T15:09:28;40.20;;;16.57;;
35993;SDS011;22066;54.274;18.578;2022-12-05T15:11:57;54.50;;;20.43;;
35993;SDS011;22066;54.274;18.578;2022-12-05T15:14:24;63.80;;;25.67;;
35993;SDS011;22066;54.274;18.578;2022-12-05T15:16:52;33.67;;;13.55;;
35993;SDS011;22066;54.274;18.578;2022-12-05T15:19:21;35.07;;;15.50;;
35993;SDS011;22066;54.274;18.578;2022-12-05T15:21:51;43.03;;;17.27;;
35993;SDS011;22066;54.274;18.578;2022-12-05T15:24:20;35.50;;;15.03;;
35993;SDS011;22066;54.274;18.578;2022-12-05T15:29:39;42.13;;;16.73;;
35993;SDS011;22066;54.274;18.578;2022-12-05T15:37:22;40.80;;;15.33;;
35993;SDS011;22066;54.274;18.578;2022-12-05T15:39:57;42.20;;;16.90;;
35993;SDS011;22066;54.274;18.578;2022-12-05T15:42:44;44.17;;;17.80;;
35993;SDS011;22066;54.274;18.578;2022-12-05T15:47:49;38.83;;;14.37;;
35993;SDS011;22066;54.274;18.578;2022-12-05T15:50:16;63.90;;;23.87;;
35993;SDS011;22066;54.274;18.578;2022-12-05T15:55:20;47.00;;;17.33;;
35993;SDS011;22066;54.274;18.578;2022-12-05T15:57:50;51.77;;;18.83;;
35993;SDS011;22066;54.274;18.578;2022-12-05T16:02:45;65.17;;;25.23;;
35993;SDS011;22066;54.274;18.578;2022-12-05T16:05:22;44.13;;;20.00;;
35993;SDS011;22066;54.274;18.578;2022-12-05T16:07:49;53.37;;;22.03;;
35993;SDS011;22066;54.274;18.578;2022-12-05T16:10:16;73.57;;;44.83;;
35993;SDS011;22066;54.274;18.578;2022-12-05T16:12:48;42.50;;;20.10;;
35993;SDS011;22066;54.274;18.578;2022-12-05T16:17:43;53.70;;;23.80;;
35993;SDS011;22066;54.274;18.578;2022-12-05T16:20:32;44.93;;;17.23;;
35993;SDS011;22066;54.274;18.578;2022-12-05T16:22:58;45.17;;;16.40;;
35993;SDS011;22066;54.274;18.578;2022-12-05T16:25:32;39.97;;;17.48;;
35993;SDS011;22066;54.274;18.578;2022-12-05T16:30:34;35.77;;;15.13;;
35993;SDS011;22066;54.274;18.578;2022-12-05T16:33:02;37.43;;;16.70;;
35993;SDS011;22066;54.274;18.578;2022-12-05T16:35:38;33.85;;;17.10;;
35993;SDS011;22066;54.274;18.578;2022-12-05T16:45:43;39.97;;;16.80;;
35993;SDS011;22066;54.274;18.578;2022-12-05T16:48:30;45.50;;;16.43;;
35993;SDS011;22066;54.274;18.578;2022-12-05T16:53:37;35.90;;;15.27;;
35993;SDS011;22066;54.274;18.578;2022-12-05T16:56:03;41.40;;;14.90;;
35993;SDS011;22066;54.274;18.578;2022-12-05T16:58:30;37.43;;;15.63;;
35993;SDS011;22066;54.274;18.578;2022-12-05T17:01:01;47.73;;;19.27;;
35993;SDS011;22066;54.274;18.578;2022-12-05T17:03:28;38.17;;;15.90;;
35993;SDS011;22066;54.274;18.578;2022-12-05T17:05:54;37.90;;;14.93;;
35993;SDS011;22066;54.274;18.578;2022-12-05T17:08:21;48.13;;;16.37;;
35993;SDS011;22066;54.274;18.578;2022-12-05T17:10:48;48.20;;;17.93;;
35993;SDS011;22066;54.274;18.578;2022-12-05T17:13:14;48.17;;;17.43;;
35993;SDS011;22066;54.274;18.578;2022-12-05T17:15:40;43.00;;;15.50;;
35993;SDS011;22066;54.274;18.578;2022-12-05T17:18:13;47.73;;;16.63;;
35993;SDS011;22066;54.274;18.578;2022-12-05T17:20:41;45.90;;;16.87;;
35993;SDS011;22066;54.274;18.578;2022-12-05T17:23:13;49.93;;;18.10;;
35993;SDS011;22066;54.274;18.578;2022-12-05T17:25:40;43.07;;;17.03;;
35993;SDS011;22066;54.274;18.578;2022-12-05T17:28:07;56.28;;;20.92;;
35993;SDS011;22066;54.274;18.578;2022-12-05T17:30:34;60.40;;;22.80;;
35993;SDS011;22066;54.274;18.578;2022-12-05T17:33:02;41.25;;;18.58;;